Date,TemperatureHighF,TemperatureAvgF,TemperatureLowF,DewpointHighF,DewpointAvgF,DewpointLowF,HumidityHigh,HumidityAvg,HumidityLow,PressureMaxIn,PressureMinIn,WindSpeedMaxMPH,WindSpeedAvgMPH,GustSpeedMaxMPH,PrecipitationSumIn
2013-1-1,50.2,45.1,40.5,49.9,40.2,29.3,99,84,64,30.39,30.22,8,2,8,0.27
2013-1-2,51.8,50.0,46.0,49.6,44.6,40.8,99,83,66,30.44,30.18,5,1,5,0.08
2013-1-3,51.8,51.8,51.8,40.8,40.8,40.8,66,66,66,30.55,30.39,2,2,2,0.08
2013-1-4,51.8,51.8,51.8,40.8,40.8,40.8,66,66,66,30.60,30.48,2,2,2,0.08
2013-1-5,55.8,49.9,45.0,40.8,31.8,20.3,66,51,27,30.66,30.49,5,2,5,0.08
2013-1-6,59.2,47.4,41.5,42.5,36.2,25.9,89,67,45,30.51,30.32,32,7,32,0.00
2013-1-7,41.5,41.5,41.5,31.4,31.4,31.4,67,67,67,30.70,30.48,0,0,0,0.00
2013-1-8,44.6,41.6,40.8,41.4,32.8,31.4,97,71,67,30.73,30.63,2,0,2,0.00
2013-1-9,68.0,52.2,38.7,53.0,47.2,38.4,99,85,56,30.72,30.64,4,0,4,0.00
2013-1-10,65.5,57.7,48.9,55.6,48.6,40.1,99,74,56,30.78,30.64,5,1,5,0.00
2013-1-11,55.6,48.7,46.9,51.4,48.1,46.7,99,98,73,30.65,30.44,9,1,9,0.09
2013-1-12,72.5,58.9,48.0,65.0,56.8,47.8,99,93,76,30.45,30.37,4,0,4,0.01
2013-1-13,75.4,64.6,58.1,64.1,60.9,57.8,99,89,65,30.42,30.32,14,2,14,0.00
2013-1-14,65.3,63.3,60.8,65.0,62.2,60.2,99,96,90,30.40,30.34,24,1,24,0.20
2013-1-15,61.7,47.9,41.9,61.1,47.5,41.6,99,99,97,30.47,30.34,6,1,6,0.09
2013-1-16,50.7,45.8,41.9,50.5,45.4,41.6,99,99,98,30.35,30.25,5,1,5,0.12
2013-1-17,51.1,45.6,34.3,50.8,45.3,33.8,99,99,97,30.45,30.10,11,2,11,1.49
2013-1-18,54.1,41.0,0.0,35.6,27.1,19.9,98,61,28,30.77,30.44,6,2,6,0.01
2013-1-19,64.8,43.2,27.3,32.3,26.6,18.9,95,58,21,30.75,30.43,10,2,10,0.00
2013-1-20,70.7,50.7,37.4,34.9,30.7,26.2,77,49,22,30.43,30.29,10,2,10,0.00
2013-1-21,68.2,46.9,31.6,45.8,27.8,15.8,99,55,20,30.35,30.19,14,2,14,0.00
2013-1-22,51.4,38.5,30.4,20.5,7.5,-1.5,44,28,20,30.52,30.28,11,3,11,0.00
2013-1-23,53.2,36.2,23.4,29.6,10.9,-4.8,65,37,21,30.62,30.32,12,2,12,0.00
2013-1-24,52.5,39.2,28.4,35.6,16.1,-1.0,86,44,21,30.75,30.24,10,2,10,0.00
2013-1-25,28.4,25.9,22.3,25.3,13.1,1.0,90,61,30,30.75,30.38,64,2,64,0.00
2013-1-26,57.2,35.7,27.9,37.6,30.8,25.3,99,85,39,30.63,30.34,4,0,4,0.01
2013-1-27,50.9,38.2,26.2,30.6,26.8,20.3,98,66,42,30.82,30.63,5,1,5,0.00
2013-1-28,53.8,43.4,36.1,48.4,37.6,29.0,96,80,66,30.74,30.52,11,2,11,0.01
2013-1-29,77.2,60.2,43.5,60.4,53.3,43.0,99,80,53,30.52,30.32,13,2,13,0.00
2013-1-30,74.8,66.6,53.1,64.4,61.6,50.8,99,85,62,30.32,29.71,22,6,22,0.86
2013-1-31,55.4,45.8,35.2,50.8,28.3,17.5,92,54,23,30.30,29.81,20,5,21,0.04